sensor_id;sensor_type;location;lat;lon;timestamp;temperature;humidity
58568;DHT22;44354;46.192;-1.076;2022-07-24T00:00:08;17.20;99.90
58568;DHT22;44354;46.192;-1.076;2022-07-24T00:02:34;17.20;99.90
58568;DHT22;44354;46.192;-1.076;2022-07-24T00:05:00;17.10;99.90
58568;DHT22;44354;46.192;-1.076;2022-07-24T00:07:27;17.10;99.90
58568;DHT22;44354;46.192;-1.076;2022-07-24T00:09:54;17.00;99.90
58568;DHT22;44354;46.192;-1.076;2022-07-24T00:12:19;17.00;99.90
58568;DHT22;44354;46.192;-1.076;2022-07-24T00:14:45;16.90;99.90
58568;DHT22;44354;46.192;-1.076;2022-07-24T00:17:11;16.80;99.90
58568;DHT22;44354;46.192;-1.076;2022-07-24T00:19:37;16.70;99.90
58568;DHT22;44354;46.192;-1.076;2022-07-24T00:22:03;16.70;99.90
58568;DHT22;44354;46.192;-1.076;2022-07-24T00:24:29;16.70;99.90
58568;DHT22;44354;46.192;-1.076;2022-07-24T00:26:55;16.70;99.90
58568;DHT22;44354;46.192;-1.076;2022-07-24T00:29:21;16.70;99.90
58568;DHT22;44354;46.192;-1.076;2022-07-24T00:31:47;16.70;99.90
58568;DHT22;44354;46.192;-1.076;2022-07-24T00:34:12;16.70;99.90
58568;DHT22;44354;46.192;-1.076;2022-07-24T00:36:38;16.60;99.90
58568;DHT22;44354;46.192;-1.076;2022-07-24T00:39:04;16.70;99.90
58568;DHT22;44354;46.192;-1.076;2022-07-24T00:41:29;16.70;99.90
58568;DHT22;44354;46.192;-1.076;2022-07-24T00:44:06;16.70;99.90
58568;DHT22;44354;46.192;-1.076;2022-07-24T00:46:34;16.60;99.90
58568;DHT22;44354;46.192;-1.076;2022-07-24T00:49:00;16.60;99.90
58568;DHT22;44354;46.192;-1.076;2022-07-24T00:51:25;16.50;99.90
58568;DHT22;44354;46.192;-1.076;2022-07-24T00:53:51;16.50;99.90
58568;DHT22;44354;46.192;-1.076;2022-07-24T00:56:17;16.40;99.90
58568;DHT22;44354;46.192;-1.076;2022-07-24T00:58:45;16.50;99.90
58568;DHT22;44354;46.192;-1.076;2022-07-24T01:01:11;16.50;99.90
58568;DHT22;44354;46.192;-1.076;2022-07-24T01:03:37;16.50;99.90
58568;DHT22;44354;46.192;-1.076;2022-07-24T01:06:03;16.50;99.90
58568;DHT22;44354;46.192;-1.076;2022-07-24T01:08:28;16.60;99.90
58568;DHT22;44354;46.192;-1.076;2022-07-24T01:10:54;16.60;99.90
58568;DHT22;44354;46.192;-1.076;2022-07-24T01:13:21;16.50;99.90
58568;DHT22;44354;46.192;-1.076;2022-07-24T01:15:47;16.40;99.90
58568;DHT22;44354;46.192;-1.076;2022-07-24T01:18:13;16.40;99.90
58568;DHT22;44354;46.192;-1.076;2022-07-24T01:20:38;16.30;99.90
58568;DHT22;44354;46.192;-1.076;2022-07-24T01:23:04;16.30;99.90
58568;DHT22;44354;46.192;-1.076;2022-07-24T01:25:30;16.20;99.90
58568;DHT22;44354;46.192;-1.076;2022-07-24T01:27:56;16.10;99.90
58568;DHT22;44354;46.192;-1.076;2022-07-24T01:30:23;16.10;99.90
58568;DHT22;44354;46.192;-1.076;2022-07-24T01:32:48;16.10;99.90
58568;DHT22;44354;46.192;-1.076;2022-07-24T01:35:14;16.10;99.90
58568;DHT22;44354;46.192;-1.076;2022-07-24T01:37:40;16.10;99.90
58568;DHT22;44354;46.192;-1.076;2022-07-24T01:40:06;16.10;99.90
58568;DHT22;44354;46.192;-1.076;2022-07-24T01:42:31;16.10;99.90
58568;DHT22;44354;46.192;-1.076;2022-07-24T01:44:57;16.10;99.90
58568;DHT22;44354;46.192;-1.076;2022-07-24T01:47:23;16.10;99.90
58568;DHT22;44354;46.192;-1.076;2022-07-24T01:49:48;16.00;99.90
58568;DHT22;44354;46.192;-1.076;2022-07-24T01:52:14;16.00;99.90
58568;DHT22;44354;46.192;-1.076;2022-07-24T01:54:40;16.00;99.90
58568;DHT22;44354;46.192;-1.076;2022-07-24T01:57:05;16.00;99.90
58568;DHT22;44354;46.192;-1.076;2022-07-24T01:59:31;16.00;99.90
58568;DHT22;44354;46.192;-1.076;2022-07-24T02:01:56;16.10;99.90
58568;DHT22;44354;46.192;-1.076;2022-07-24T02:04:22;16.00;99.90
58568;DHT22;44354;46.192;-1.076;2022-07-24T02:06:48;16.00;99.90
58568;DHT22;44354;46.192;-1.076;2022-07-24T02:09:13;16.00;99.90
58568;DHT22;44354;46.192;-1.076;2022-07-24T02:11:39;16.00;99.90
58568;DHT22;44354;46.192;-1.076;2022-07-24T02:14:05;16.00;99.90
58568;DHT22;44354;46.192;-1.076;2022-07-24T02:16:30;16.00;99.90
58568;DHT22;44354;46.192;-1.076;2022-07-24T02:18:56;16.00;99.90
58568;DHT22;44354;46.192;-1.076;2022-07-24T02:21:22;16.00;99.90
58568;DHT22;44354;46.192;-1.076;2022-07-24T02:23:48;16.00;99.90
58568;DHT22;44354;46.192;-1.076;2022-07-24T02:26:13;16.00;99.90
58568;DHT22;44354;46.192;-1.076;2022-07-24T02:28:39;15.90;99.90
58568;DHT22;44354;46.192;-1.076;2022-07-24T02:31:04;15.90;99.90
58568;DHT22;44354;46.192;-1.076;2022-07-24T02:33:30;15.90;99.90
58568;DHT22;44354;46.192;-1.076;2022-07-24T02:35:56;15.90;99.90
58568;DHT22;44354;46.192;-1.076;2022-07-24T02:38:21;15.90;99.90
58568;DHT22;44354;46.192;-1.076;2022-07-24T02:40:47;15.80;99.90
58568;DHT22;44354;46.192;-1.076;2022-07-24T02:43:13;15.80;99.90
58568;DHT22;44354;46.192;-1.076;2022-07-24T02:45:38;15.80;99.90
58568;DHT22;44354;46.192;-1.076;2022-07-24T02:48:04;15.80;99.90
58568;DHT22;44354;46.192;-1.076;2022-07-24T02:50:32;15.80;99.90
58568;DHT22;44354;46.192;-1.076;2022-07-24T02:52:58;15.80;99.90
58568;DHT22;44354;46.192;-1.076;2022-07-24T02:55:24;15.70;99.90
58568;DHT22;44354;46.192;-1.076;2022-07-24T02:57:50;15.70;99.90
58568;DHT22;44354;46.192;-1.076;2022-07-24T03:00:17;15.60;99.90
58568;DHT22;44354;46.192;-1.076;2022-07-24T03:02:43;15.60;99.90
58568;DHT22;44354;46.192;-1.076;2022-07-24T03:05:09;15.60;99.90
58568;DHT22;44354;46.192;-1.076;2022-07-24T03:07:35;15.70;99.90
58568;DHT22;44354;46.192;-1.076;2022-07-24T03:10:03;15.60;99.90
58568;DHT22;44354;46.192;-1.076;2022-07-24T03:12:29;15.60;99.90
58568;DHT22;44354;46.192;-1.076;2022-07-24T03:14:55;15.60;99.90
58568;DHT22;44354;46.192;-1.076;2022-07-24T03:17:20;15.50;99.90
58568;DHT22;44354;46.192;-1.076;2022-07-24T03:19:46;15.50;99.90
58568;DHT22;44354;46.192;-1.076;2022-07-24T03:22:12;15.50;99.90
58568;DHT22;44354;46.192;-1.076;2022-07-24T03:24:37;15.50;99.90
58568;DHT22;44354;46.192;-1.076;2022-07-24T03:27:03;15.40;99.90
58568;DHT22;44354;46.192;-1.076;2022-07-24T03:29:29;15.40;99.90
58568;DHT22;44354;46.192;-1.076;2022-07-24T03:31:54;15.40;99.90
58568;DHT22;44354;46.192;-1.076;2022-07-24T03:34:20;15.40;99.90
58568;DHT22;44354;46.192;-1.076;2022-07-24T03:36:46;15.40;99.90
58568;DHT22;44354;46.192;-1.076;2022-07-24T03:39:11;15.40;99.90
58568;DHT22;44354;46.192;-1.076;2022-07-24T03:41:37;15.40;99.90
58568;DHT22;44354;46.192;-1.076;2022-07-24T03:44:03;15.40;99.90
58568;DHT22;44354;46.192;-1.076;2022-07-24T03:46:29;15.40;99.90
58568;DHT22;44354;46.192;-1.076;2022-07-24T03:48:55;15.40;99.90
58568;DHT22;44354;46.192;-1.076;2022-07-24T03:51:21;15.30;99.90
58568;DHT22;44354;46.192;-1.076;2022-07-24T03:53:47;15.30;99.90
58568;DHT22;44354;46.192;-1.076;2022-07-24T03:56:13;15.20;99.90
58568;DHT22;44354;46.192;-1.076;2022-07-24T03:58:39;15.10;99.90
58568;DHT22;44354;46.192;-1.076;2022-07-24T04:01:04;15.00;99.90
58568;DHT22;44354;46.192;-1.076;2022-07-24T04:03:30;15.00;99.90
58568;DHT22;44354;46.192;-1.076;2022-07-24T04:05:56;14.90;99.90
58568;DHT22;44354;46.192;-1.076;2022-07-24T04:08:22;14.80;99.90
58568;DHT22;44354;46.192;-1.076;2022-07-24T04:10:47;14.90;99.90
58568;DHT22;44354;46.192;-1.076;2022-07-24T04:13:13;14.80;99.90
58568;DHT22;44354;46.192;-1.076;2022-07-24T04:15:39;14.80;99.90
58568;DHT22;44354;46.192;-1.076;2022-07-24T04:18:05;14.90;99.90
58568;DHT22;44354;46.192;-1.076;2022-07-24T04:20:30;14.90;99.90
58568;DHT22;44354;46.192;-1.076;2022-07-24T04:22:56;14.90;99.90
58568;DHT22;44354;46.192;-1.076;2022-07-24T04:25:22;14.80;99.90
58568;DHT22;44354;46.192;-1.076;2022-07-24T04:27:47;14.90;99.90
58568;DHT22;44354;46.192;-1.076;2022-07-24T04:30:13;14.90;99.90
58568;DHT22;44354;46.192;-1.076;2022-07-24T04:32:39;14.90;99.90
58568;DHT22;44354;46.192;-1.076;2022-07-24T04:35:06;14.90;99.90
58568;DHT22;44354;46.192;-1.076;2022-07-24T04:37:32;14.90;99.90
58568;DHT22;44354;46.192;-1.076;2022-07-24T04:39:57;14.90;99.90
58568;DHT22;44354;46.192;-1.076;2022-07-24T04:42:23;14.90;99.90
58568;DHT22;44354;46.192;-1.076;2022-07-24T04:44:49;14.90;99.90
58568;DHT22;44354;46.192;-1.076;2022-07-24T04:47:14;14.90;99.90
58568;DHT22;44354;46.192;-1.076;2022-07-24T04:49:40;14.90;99.90
58568;DHT22;44354;46.192;-1.076;2022-07-24T04:52:06;14.90;99.90
58568;DHT22;44354;46.192;-1.076;2022-07-24T04:54:32;14.90;99.90
58568;DHT22;44354;46.192;-1.076;2022-07-24T04:56:57;14.90;99.90
58568;DHT22;44354;46.192;-1.076;2022-07-24T04:59:23;14.90;99.90
58568;DHT22;44354;46.192;-1.076;2022-07-24T05:01:49;14.90;99.90
58568;DHT22;44354;46.192;-1.076;2022-07-24T05:04:15;14.80;99.90
58568;DHT22;44354;46.192;-1.076;2022-07-24T05:06:40;14.80;99.90
58568;DHT22;44354;46.192;-1.076;2022-07-24T05:09:06;14.70;99.90
58568;DHT22;44354;46.192;-1.076;2022-07-24T05:11:32;14.70;99.90
58568;DHT22;44354;46.192;-1.076;2022-07-24T05:13:57;14.80;99.90
58568;DHT22;44354;46.192;-1.076;2022-07-24T05:16:23;14.80;99.90
58568;DHT22;44354;46.192;-1.076;2022-07-24T05:18:48;14.80;99.90
58568;DHT22;44354;46.192;-1.076;2022-07-24T05:21:14;14.80;99.90
58568;DHT22;44354;46.192;-1.076;2022-07-24T05:23:41;14.70;99.90
58568;DHT22;44354;46.192;-1.076;2022-07-24T05:26:08;14.70;99.90
58568;DHT22;44354;46.192;-1.076;2022-07-24T05:28:34;14.70;99.90
58568;DHT22;44354;46.192;-1.076;2022-07-24T05:31:00;14.70;99.90
58568;DHT22;44354;46.192;-1.076;2022-07-24T05:33:25;14.70;99.90
58568;DHT22;44354;46.192;-1.076;2022-07-24T05:35:51;14.60;99.90
58568;DHT22;44354;46.192;-1.076;2022-07-24T05:38:17;14.60;99.90
58568;DHT22;44354;46.192;-1.076;2022-07-24T05:40:43;14.70;99.90
58568;DHT22;44354;46.192;-1.076;2022-07-24T05:43:08;14.70;99.90
58568;DHT22;44354;46.192;-1.076;2022-07-24T05:45:34;14.80;99.90
58568;DHT22;44354;46.192;-1.076;2022-07-24T05:48:00;14.80;99.90
58568;DHT22;44354;46.192;-1.076;2022-07-24T05:50:25;14.90;99.90
58568;DHT22;44354;46.192;-1.076;2022-07-24T05:52:51;14.90;99.90
58568;DHT22;44354;46.192;-1.076;2022-07-24T05:55:17;15.00;99.90
58568;DHT22;44354;46.192;-1.076;2022-07-24T05:57:43;15.10;99.90
58568;DHT22;44354;46.192;-1.076;2022-07-24T06:00:09;15.20;99.90
58568;DHT22;44354;46.192;-1.076;2022-07-24T06:02:34;15.30;99.90
58568;DHT22;44354;46.192;-1.076;2022-07-24T06:05:00;15.40;99.90
58568;DHT22;44354;46.192;-1.076;2022-07-24T06:07:26;15.50;99.90
58568;DHT22;44354;46.192;-1.076;2022-07-24T06:09:51;15.60;99.90
58568;DHT22;44354;46.192;-1.076;2022-07-24T06:12:17;15.70;99.90
58568;DHT22;44354;46.192;-1.076;2022-07-24T06:14:43;15.90;99.90
58568;DHT22;44354;46.192;-1.076;2022-07-24T06:17:09;16.00;99.90
58568;DHT22;44354;46.192;-1.076;2022-07-24T06:19:34;16.10;99.90
58568;DHT22;44354;46.192;-1.076;2022-07-24T06:22:00;16.30;99.90
58568;DHT22;44354;46.192;-1.076;2022-07-24T06:24:26;16.40;99.90
58568;DHT22;44354;46.192;-1.076;2022-07-24T06:26:51;16.50;99.90
58568;DHT22;44354;46.192;-1.076;2022-07-24T06:29:17;16.70;99.90
58568;DHT22;44354;46.192;-1.076;2022-07-24T06:31:43;16.80;99.90
58568;DHT22;44354;46.192;-1.076;2022-07-24T06:34:08;16.90;99.90
58568;DHT22;44354;46.192;-1.076;2022-07-24T06:36:34;17.10;99.90
58568;DHT22;44354;46.192;-1.076;2022-07-24T06:39:00;17.20;99.90
58568;DHT22;44354;46.192;-1.076;2022-07-24T06:41:25;17.30;99.90
58568;DHT22;44354;46.192;-1.076;2022-07-24T06:43:51;17.40;99.90
58568;DHT22;44354;46.192;-1.076;2022-07-24T06:46:16;17.50;99.90
58568;DHT22;44354;46.192;-1.076;2022-07-24T06:48:42;17.60;99.90
58568;DHT22;44354;46.192;-1.076;2022-07-24T06:51:08;17.70;99.90
58568;DHT22;44354;46.192;-1.076;2022-07-24T06:53:34;17.80;99.90
58568;DHT22;44354;46.192;-1.076;2022-07-24T06:56:00;17.90;99.90
58568;DHT22;44354;46.192;-1.076;2022-07-24T06:58:26;18.10;99.90
58568;DHT22;44354;46.192;-1.076;2022-07-24T07:00:52;18.20;99.90
58568;DHT22;44354;46.192;-1.076;2022-07-24T07:03:18;18.40;99.90
58568;DHT22;44354;46.192;-1.076;2022-07-24T07:05:44;18.50;99.90
58568;DHT22;44354;46.192;-1.076;2022-07-24T07:08:09;18.70;99.90
58568;DHT22;44354;46.192;-1.076;2022-07-24T07:10:35;18.90;99.90
58568;DHT22;44354;46.192;-1.076;2022-07-24T07:13:01;19.00;99.90
58568;DHT22;44354;46.192;-1.076;2022-07-24T07:15:27;19.20;99.90
58568;DHT22;44354;46.192;-1.076;2022-07-24T07:17:52;19.40;99.90
58568;DHT22;44354;46.192;-1.076;2022-07-24T07:20:18;19.50;99.90
58568;DHT22;44354;46.192;-1.076;2022-07-24T07:22:44;19.60;99.90
58568;DHT22;44354;46.192;-1.076;2022-07-24T07:25:10;19.70;99.90
58568;DHT22;44354;46.192;-1.076;2022-07-24T07:27:37;19.80;99.90
58568;DHT22;44354;46.192;-1.076;2022-07-24T07:30:05;19.90;99.90
58568;DHT22;44354;46.192;-1.076;2022-07-24T07:32:31;20.00;99.90
58568;DHT22;44354;46.192;-1.076;2022-07-24T07:34:57;20.10;99.90
58568;DHT22;44354;46.192;-1.076;2022-07-24T07:37:23;20.20;99.90
58568;DHT22;44354;46.192;-1.076;2022-07-24T07:39:48;20.40;99.90
58568;DHT22;44354;46.192;-1.076;2022-07-24T07:42:14;20.50;99.90
58568;DHT22;44354;46.192;-1.076;2022-07-24T07:44:39;20.70;99.90
58568;DHT22;44354;46.192;-1.076;2022-07-24T07:47:05;20.90;99.90
58568;DHT22;44354;46.192;-1.076;2022-07-24T07:49:31;21.00;99.90
58568;DHT22;44354;46.192;-1.076;2022-07-24T07:51:56;21.30;99.90
58568;DHT22;44354;46.192;-1.076;2022-07-24T07:54:22;21.50;99.90
58568;DHT22;44354;46.192;-1.076;2022-07-24T07:56:48;21.60;99.90
58568;DHT22;44354;46.192;-1.076;2022-07-24T07:59:13;21.80;99.90
58568;DHT22;44354;46.192;-1.076;2022-07-24T08:01:39;22.10;99.90
58568;DHT22;44354;46.192;-1.076;2022-07-24T08:04:05;22.20;99.90
58568;DHT22;44354;46.192;-1.076;2022-07-24T08:06:31;22.50;99.90
58568;DHT22;44354;46.192;-1.076;2022-07-24T08:08:57;22.70;99.90
58568;DHT22;44354;46.192;-1.076;2022-07-24T08:11:22;22.90;95.90
58568;DHT22;44354;46.192;-1.076;2022-07-24T08:13:48;23.10;98.60
58568;DHT22;44354;46.192;-1.076;2022-07-24T08:16:14;23.30;88.00
58568;DHT22;44354;46.192;-1.076;2022-07-24T08:18:39;23.50;70.00
58568;DHT22;44354;46.192;-1.076;2022-07-24T08:21:05;23.80;74.00
58568;DHT22;44354;46.192;-1.076;2022-07-24T08:23:31;24.00;58.50
58568;DHT22;44354;46.192;-1.076;2022-07-24T08:25:57;24.30;59.30
58568;DHT22;44354;46.192;-1.076;2022-07-24T08:28:22;24.50;47.80
58568;DHT22;44354;46.192;-1.076;2022-07-24T08:30:49;24.70;36.10
58568;DHT22;44354;46.192;-1.076;2022-07-24T08:33:15;25.00;20.30
58568;DHT22;44354;46.192;-1.076;2022-07-24T08:35:40;25.10;12.80
58568;DHT22;44354;46.192;-1.076;2022-07-24T08:38:06;25.30;10.90
58568;DHT22;44354;46.192;-1.076;2022-07-24T08:40:37;25.50;1.00
58568;DHT22;44354;46.192;-1.076;2022-07-24T08:43:05;25.70;1.00
58568;DHT22;44354;46.192;-1.076;2022-07-24T08:45:35;25.80;1.00
58568;DHT22;44354;46.192;-1.076;2022-07-24T08:48:03;26.10;1.00
58568;DHT22;44354;46.192;-1.076;2022-07-24T08:50:30;26.30;1.00
58568;DHT22;44354;46.192;-1.076;2022-07-24T08:52:57;26.60;1.00
58568;DHT22;44354;46.192;-1.076;2022-07-24T08:55:23;26.80;1.00
58568;DHT22;44354;46.192;-1.076;2022-07-24T08:57:49;27.00;1.00
58568;DHT22;44354;46.192;-1.076;2022-07-24T09:00:15;27.10;1.00
58568;DHT22;44354;46.192;-1.076;2022-07-24T09:02:41;27.30;1.00
58568;DHT22;44354;46.192;-1.076;2022-07-24T09:05:07;27.50;1.00
58568;DHT22;44354;46.192;-1.076;2022-07-24T09:07:33;27.60;1.00
58568;DHT22;44354;46.192;-1.076;2022-07-24T09:10:00;27.90;1.00
58568;DHT22;44354;46.192;-1.076;2022-07-24T09:12:31;28.00;1.00
58568;DHT22;44354;46.192;-1.076;2022-07-24T09:14:59;28.10;1.00
58568;DHT22;44354;46.192;-1.076;2022-07-24T09:17:25;28.10;1.00
58568;DHT22;44354;46.192;-1.076;2022-07-24T09:19:53;28.10;1.00
58568;DHT22;44354;46.192;-1.076;2022-07-24T09:22:37;28.20;1.00
58568;DHT22;44354;46.192;-1.076;2022-07-24T09:27:35;28.30;1.00
58568;DHT22;44354;46.192;-1.076;2022-07-24T09:30:03;28.50;1.00
58568;DHT22;44354;46.192;-1.076;2022-07-24T09:32:29;28.60;1.00
58568;DHT22;44354;46.192;-1.076;2022-07-24T09:34:55;28.80;1.00
58568;DHT22;44354;46.192;-1.076;2022-07-24T09:37:21;28.80;1.00
58568;DHT22;44354;46.192;-1.076;2022-07-24T09:39:47;28.60;1.00
58568;DHT22;44354;46.192;-1.076;2022-07-24T09:42:14;28.80;1.00
58568;DHT22;44354;46.192;-1.076;2022-07-24T09:44:40;29.20;1.00
58568;DHT22;44354;46.192;-1.076;2022-07-24T09:47:08;29.20;1.00
58568;DHT22;44354;46.192;-1.076;2022-07-24T09:49:36;29.50;1.00
58568;DHT22;44354;46.192;-1.076;2022-07-24T09:54:35;29.40;1.00
58568;DHT22;44354;46.192;-1.076;2022-07-24T09:57:23;29.50;1.00
58568;DHT22;44354;46.192;-1.076;2022-07-24T09:59:55;29.70;1.00
58568;DHT22;44354;46.192;-1.076;2022-07-24T10:02:24;29.90;1.00
58568;DHT22;44354;46.192;-1.076;2022-07-24T10:04:51;29.90;1.00
58568;DHT22;44354;46.192;-1.076;2022-07-24T10:07:20;29.90;1.00
58568;DHT22;44354;46.192;-1.076;2022-07-24T10:09:48;30.00;1.00
58568;DHT22;44354;46.192;-1.076;2022-07-24T10:12:22;29.90;1.00
58568;DHT22;44354;46.192;-1.076;2022-07-24T10:14:50;30.10;1.00
58568;DHT22;44354;46.192;-1.076;2022-07-24T10:17:17;30.10;1.00
58568;DHT22;44354;46.192;-1.076;2022-07-24T10:19:49;30.00;1.00
58568;DHT22;44354;46.192;-1.076;2022-07-24T10:22:21;30.30;1.00
58568;DHT22;44354;46.192;-1.076;2022-07-24T10:27:36;30.40;1.00
58568;DHT22;44354;46.192;-1.076;2022-07-24T10:30:10;30.50;1.00
58568;DHT22;44354;46.192;-1.076;2022-07-24T10:32:37;30.70;1.00
58568;DHT22;44354;46.192;-1.076;2022-07-24T10:40:45;31.00;1.00
58568;DHT22;44354;46.192;-1.076;2022-07-24T10:43:18;30.90;1.00
58568;DHT22;44354;46.192;-1.076;2022-07-24T10:48:35;30.90;1.00
58568;DHT22;44354;46.192;-1.076;2022-07-24T10:51:02;30.90;1.00
58568;DHT22;44354;46.192;-1.076;2022-07-24T10:53:53;30.60;1.00
58568;DHT22;44354;46.192;-1.076;2022-07-24T10:59:03;31.10;1.00
58568;DHT22;44354;46.192;-1.076;2022-07-24T11:01:46;31.50;1.00
58568;DHT22;44354;46.192;-1.076;2022-07-24T11:06:45;32.00;1.00
58568;DHT22;44354;46.192;-1.076;2022-07-24T11:09:12;31.90;1.00
58568;DHT22;44354;46.192;-1.076;2022-07-24T11:17:36;31.70;1.00
58568;DHT22;44354;46.192;-1.076;2022-07-24T11:20:03;31.80;1.00
58568;DHT22;44354;46.192;-1.076;2022-07-24T11:23:18;32.00;1.00
58568;DHT22;44354;46.192;-1.076;2022-07-24T11:25:44;32.10;1.00
58568;DHT22;44354;46.192;-1.076;2022-07-24T11:30:46;31.70;1.00
58568;DHT22;44354;46.192;-1.076;2022-07-24T11:33:17;31.50;1.00
58568;DHT22;44354;46.192;-1.076;2022-07-24T11:35:45;31.40;1.00
58568;DHT22;44354;46.192;-1.076;2022-07-24T11:38:11;31.40;1.00
58568;DHT22;44354;46.192;-1.076;2022-07-24T11:40:36;31.40;1.00
58568;DHT22;44354;46.192;-1.076;2022-07-24T11:43:06;31.40;1.00
58568;DHT22;44354;46.192;-1.076;2022-07-24T11:45:32;31.60;1.00
58568;DHT22;44354;46.192;-1.076;2022-07-24T11:47:58;31.90;1.00
58568;DHT22;44354;46.192;-1.076;2022-07-24T11:50:25;31.60;1.00
58568;DHT22;44354;46.192;-1.076;2022-07-24T11:52:53;31.80;1.00
58568;DHT22;44354;46.192;-1.076;2022-07-24T11:55:21;31.80;1.00
58568;DHT22;44354;46.192;-1.076;2022-07-24T11:57:53;32.20;1.00
58568;DHT22;44354;46.192;-1.076;2022-07-24T12:00:25;32.50;1.00
58568;DHT22;44354;46.192;-1.076;2022-07-24T12:02:53;32.20;1.00
58568;DHT22;44354;46.192;-1.076;2022-07-24T12:05:28;31.90;1.00
58568;DHT22;44354;46.192;-1.076;2022-07-24T12:07:57;31.60;1.00
58568;DHT22;44354;46.192;-1.076;2022-07-24T12:10:25;31.50;1.00
58568;DHT22;44354;46.192;-1.076;2022-07-24T12:12:53;31.70;1.00
58568;DHT22;44354;46.192;-1.076;2022-07-24T12:15:23;31.40;1.00
58568;DHT22;44354;46.192;-1.076;2022-07-24T12:18:00;31.40;1.00
58568;DHT22;44354;46.192;-1.076;2022-07-24T12:20:38;31.60;1.00
58568;DHT22;44354;46.192;-1.076;2022-07-24T12:23:14;31.70;1.00
58568;DHT22;44354;46.192;-1.076;2022-07-24T12:25:42;31.50;1.00
58568;DHT22;44354;46.192;-1.076;2022-07-24T12:28:16;31.20;1.00
58568;DHT22;44354;46.192;-1.076;2022-07-24T12:30:48;31.00;1.00
58568;DHT22;44354;46.192;-1.076;2022-07-24T12:36:05;31.20;1.00
58568;DHT22;44354;46.192;-1.076;2022-07-24T12:38:36;31.40;1.00
58568;DHT22;44354;46.192;-1.076;2022-07-24T12:41:19;31.10;1.00
58568;DHT22;44354;46.192;-1.076;2022-07-24T12:43:47;31.20;1.00
58568;DHT22;44354;46.192;-1.076;2022-07-24T12:46:14;31.50;1.00
58568;DHT22;44354;46.192;-1.076;2022-07-24T12:48:39;31.30;1.00
58568;DHT22;44354;46.192;-1.076;2022-07-24T12:51:09;31.40;1.00
58568;DHT22;44354;46.192;-1.076;2022-07-24T12:53:38;31.50;1.00
58568;DHT22;44354;46.192;-1.076;2022-07-24T12:56:11;31.30;1.00
58568;DHT22;44354;46.192;-1.076;2022-07-24T12:58:58;31.30;1.00
58568;DHT22;44354;46.192;-1.076;2022-07-24T13:01:26;31.30;1.00
58568;DHT22;44354;46.192;-1.076;2022-07-24T13:03:59;31.30;1.00
58568;DHT22;44354;46.192;-1.076;2022-07-24T13:06:52;31.40;1.00
58568;DHT22;44354;46.192;-1.076;2022-07-24T13:09:19;31.30;1.00
58568;DHT22;44354;46.192;-1.076;2022-07-24T13:11:46;31.40;1.00
58568;DHT22;44354;46.192;-1.076;2022-07-24T13:14:13;31.50;1.00
58568;DHT22;44354;46.192;-1.076;2022-07-24T13:16:41;31.30;1.00
58568;DHT22;44354;46.192;-1.076;2022-07-24T13:19:08;31.20;1.00
58568;DHT22;44354;46.192;-1.076;2022-07-24T13:21:35;31.40;1.00
58568;DHT22;44354;46.192;-1.076;2022-07-24T13:24:02;31.60;1.00
58568;DHT22;44354;46.192;-1.076;2022-07-24T13:26:28;31.70;1.00
58568;DHT22;44354;46.192;-1.076;2022-07-24T13:28:53;31.90;1.00
58568;DHT22;44354;46.192;-1.076;2022-07-24T13:31:19;31.90;1.00
58568;DHT22;44354;46.192;-1.076;2022-07-24T13:33:46;31.80;1.00
58568;DHT22;44354;46.192;-1.076;2022-07-24T13:36:13;31.80;1.00
58568;DHT22;44354;46.192;-1.076;2022-07-24T13:38:39;31.80;1.00
58568;DHT22;44354;46.192;-1.076;2022-07-24T13:41:04;31.70;1.00
58568;DHT22;44354;46.192;-1.076;2022-07-24T13:43:30;31.60;1.00
58568;DHT22;44354;46.192;-1.076;2022-07-24T13:45:56;31.70;1.00
58568;DHT22;44354;46.192;-1.076;2022-07-24T13:48:22;31.90;1.00
58568;DHT22;44354;46.192;-1.076;2022-07-24T13:50:48;31.70;1.00
58568;DHT22;44354;46.192;-1.076;2022-07-24T13:53:13;31.80;1.00
58568;DHT22;44354;46.192;-1.076;2022-07-24T13:55:39;31.70;1.00
58568;DHT22;44354;46.192;-1.076;2022-07-24T13:58:05;31.70;1.00
58568;DHT22;44354;46.192;-1.076;2022-07-24T14:00:30;31.80;1.00
58568;DHT22;44354;46.192;-1.076;2022-07-24T14:02:56;31.80;1.00
58568;DHT22;44354;46.192;-1.076;2022-07-24T14:05:22;31.80;1.00
58568;DHT22;44354;46.192;-1.076;2022-07-24T14:07:48;31.90;1.00
58568;DHT22;44354;46.192;-1.076;2022-07-24T14:10:14;31.80;1.00
58568;DHT22;44354;46.192;-1.076;2022-07-24T14:12:40;31.80;1.00
58568;DHT22;44354;46.192;-1.076;2022-07-24T14:15:06;31.80;1.00
58568;DHT22;44354;46.192;-1.076;2022-07-24T14:17:34;31.80;1.00
58568;DHT22;44354;46.192;-1.076;2022-07-24T14:20:00;31.80;1.00
58568;DHT22;44354;46.192;-1.076;2022-07-24T14:22:25;31.70;1.00
58568;DHT22;44354;46.192;-1.076;2022-07-24T14:24:51;31.60;1.00
58568;DHT22;44354;46.192;-1.076;2022-07-24T14:27:16;31.40;1.00
58568;DHT22;44354;46.192;-1.076;2022-07-24T14:29:42;31.30;1.00
58568;DHT22;44354;46.192;-1.076;2022-07-24T14:32:08;31.60;1.00
58568;DHT22;44354;46.192;-1.076;2022-07-24T14:34:34;31.40;1.00
58568;DHT22;44354;46.192;-1.076;2022-07-24T14:36:59;31.40;1.00
58568;DHT22;44354;46.192;-1.076;2022-07-24T14:39:28;31.50;1.00
58568;DHT22;44354;46.192;-1.076;2022-07-24T14:41:56;31.40;1.00
58568;DHT22;44354;46.192;-1.076;2022-07-24T14:44:22;31.50;1.00
58568;DHT22;44354;46.192;-1.076;2022-07-24T14:46:47;31.70;1.00
58568;DHT22;44354;46.192;-1.076;2022-07-24T14:49:13;31.30;1.00
58568;DHT22;44354;46.192;-1.076;2022-07-24T14:51:39;31.20;1.00
58568;DHT22;44354;46.192;-1.076;2022-07-24T14:54:05;31.30;1.00
58568;DHT22;44354;46.192;-1.076;2022-07-24T14:56:31;31.40;1.00
58568;DHT22;44354;46.192;-1.076;2022-07-24T14:58:57;31.30;1.00
58568;DHT22;44354;46.192;-1.076;2022-07-24T15:01:23;31.00;1.00
58568;DHT22;44354;46.192;-1.076;2022-07-24T15:03:49;31.00;1.00
58568;DHT22;44354;46.192;-1.076;2022-07-24T15:06:14;30.90;1.00
58568;DHT22;44354;46.192;-1.076;2022-07-24T15:08:40;31.10;1.00
58568;DHT22;44354;46.192;-1.076;2022-07-24T15:11:06;31.00;1.00
58568;DHT22;44354;46.192;-1.076;2022-07-24T15:13:32;30.90;1.00
58568;DHT22;44354;46.192;-1.076;2022-07-24T15:15:57;30.80;1.00
58568;DHT22;44354;46.192;-1.076;2022-07-24T15:18:23;30.70;1.00
58568;DHT22;44354;46.192;-1.076;2022-07-24T15:20:49;30.70;1.00
58568;DHT22;44354;46.192;-1.076;2022-07-24T15:23:15;30.60;1.00
58568;DHT22;44354;46.192;-1.076;2022-07-24T15:25:41;30.40;1.00
58568;DHT22;44354;46.192;-1.076;2022-07-24T15:28:06;30.30;1.00
58568;DHT22;44354;46.192;-1.076;2022-07-24T15:30:32;30.20;1.00
58568;DHT22;44354;46.192;-1.076;2022-07-24T15:32:58;30.10;1.00
58568;DHT22;44354;46.192;-1.076;2022-07-24T15:35:27;30.10;1.00
58568;DHT22;44354;46.192;-1.076;2022-07-24T15:37:53;30.00;1.00
58568;DHT22;44354;46.192;-1.076;2022-07-24T15:40:19;29.80;1.00
58568;DHT22;44354;46.192;-1.076;2022-07-24T15:42:44;29.90;1.00
58568;DHT22;44354;46.192;-1.076;2022-07-24T15:45:10;30.10;1.00
58568;DHT22;44354;46.192;-1.076;2022-07-24T15:47:36;30.20;1.00
58568;DHT22;44354;46.192;-1.076;2022-07-24T15:50:02;30.20;1.00
58568;DHT22;44354;46.192;-1.076;2022-07-24T15:52:28;30.10;1.00